sensor_id;sensor_type;location;lat;lon;timestamp;pressure;altitude;pressure_sealevel;temperature;humidity
65897;BME280;52677;50.898;10.854;2023-11-22T00:00:39;99159.47;;;-0.91;100.00
65897;BME280;52677;50.898;10.854;2023-11-22T00:02:40;99156.31;;;-0.98;100.00
65897;BME280;52677;50.898;10.854;2023-11-22T00:04:40;99162.19;;;-0.91;100.00
65897;BME280;52677;50.898;10.854;2023-11-22T00:06:40;99177.69;;;-0.92;100.00
65897;BME280;52677;50.898;10.854;2023-11-22T00:08:41;99179.84;;;-0.89;100.00
65897;BME280;52677;50.898;10.854;2023-11-22T00:10:42;99189.91;;;-0.89;100.00
65897;BME280;52677;50.898;10.854;2023-11-22T00:12:42;99179.38;;;-0.96;100.00
65897;BME280;52677;50.898;10.854;2023-11-22T00:14:43;99170.63;;;-0.93;100.00
65897;BME280;52677;50.898;10.854;2023-11-22T00:16:43;99163.66;;;-0.99;100.00
65897;BME280;52677;50.898;10.854;2023-11-22T00:18:43;99161.72;;;-0.98;100.00
65897;BME280;52677;50.898;10.854;2023-11-22T00:20:44;99172.34;;;-1.02;100.00
65897;BME280;52677;50.898;10.854;2023-11-22T00:22:47;99178.91;;;-1.08;100.00
65897;BME280;52677;50.898;10.854;2023-11-22T00:24:48;99171.59;;;-1.07;100.00
65897;BME280;52677;50.898;10.854;2023-11-22T00:26:50;99186.84;;;-1.17;100.00
65897;BME280;52677;50.898;10.854;2023-11-22T00:28:50;99174.94;;;-1.21;100.00
65897;BME280;52677;50.898;10.854;2023-11-22T00:30:53;99171.94;;;-1.19;100.00
65897;BME280;52677;50.898;10.854;2023-11-22T00:32:54;99182.00;;;-1.20;100.00
65897;BME280;52677;50.898;10.854;2023-11-22T00:34:54;99185.28;;;-1.23;100.00
65897;BME280;52677;50.898;10.854;2023-11-22T00:36:54;99182.81;;;-1.19;100.00
65897;BME280;52677;50.898;10.854;2023-11-22T00:38:55;99192.06;;;-1.20;100.00
65897;BME280;52677;50.898;10.854;2023-11-22T00:40:55;99196.69;;;-1.26;100.00
65897;BME280;52677;50.898;10.854;2023-11-22T00:42:56;99196.19;;;-1.28;100.00
65897;BME280;52677;50.898;10.854;2023-11-22T00:44:58;99195.69;;;-1.35;100.00
65897;BME280;52677;50.898;10.854;2023-11-22T00:46:58;99194.34;;;-1.37;100.00
65897;BME280;52677;50.898;10.854;2023-11-22T00:48:58;99198.69;;;-1.36;100.00
65897;BME280;52677;50.898;10.854;2023-11-22T00:50:59;99199.78;;;-1.37;100.00
65897;BME280;52677;50.898;10.854;2023-11-22T00:52:59;99203.88;;;-1.40;100.00
65897;BME280;52677;50.898;10.854;2023-11-22T00:55:00;99210.84;;;-1.29;100.00
65897;BME280;52677;50.898;10.854;2023-11-22T00:57:00;99213.56;;;-1.29;100.00
65897;BME280;52677;50.898;10.854;2023-11-22T00:59:00;99213.06;;;-1.36;100.00
65897;BME280;52677;50.898;10.854;2023-11-22T01:01:04;99226.41;;;-1.39;100.00
65897;BME280;52677;50.898;10.854;2023-11-22T01:03:05;99224.25;;;-1.43;100.00
65897;BME280;52677;50.898;10.854;2023-11-22T01:05:06;99238.88;;;-1.38;100.00
65897;BME280;52677;50.898;10.854;2023-11-22T01:07:11;99241.31;;;-1.37;100.00
65897;BME280;52677;50.898;10.854;2023-11-22T01:09:11;99249.47;;;-1.37;100.00
65897;BME280;52677;50.898;10.854;2023-11-22T01:11:14;99252.69;;;-1.35;100.00
65897;BME280;52677;50.898;10.854;2023-11-22T01:13:14;99254.06;;;-1.37;100.00
65897;BME280;52677;50.898;10.854;2023-11-22T01:15:14;99266.84;;;-1.38;100.00
65897;BME280;52677;50.898;10.854;2023-11-22T01:17:15;99271.69;;;-1.35;100.00
65897;BME280;52677;50.898;10.854;2023-11-22T01:19:15;99266.84;;;-1.38;100.00
65897;BME280;52677;50.898;10.854;2023-11-22T01:21:16;99262.19;;;-1.32;100.00
65897;BME280;52677;50.898;10.854;2023-11-22T01:23:16;99264.63;;;-1.31;100.00
65897;BME280;52677;50.898;10.854;2023-11-22T01:25:16;99271.41;;;-1.33;100.00
65897;BME280;52677;50.898;10.854;2023-11-22T01:27:17;99268.47;;;-1.37;100.00
65897;BME280;52677;50.898;10.854;2023-11-22T01:29:17;99257.63;;;-1.42;100.00
65897;BME280;52677;50.898;10.854;2023-11-22T01:31:18;99269.28;;;-1.42;100.00
65897;BME280;52677;50.898;10.854;2023-11-22T01:33:23;99267.13;;;-1.39;100.00
65897;BME280;52677;50.898;10.854;2023-11-22T01:35:24;99264.44;;;-1.45;100.00
65897;BME280;52677;50.898;10.854;2023-11-22T01:37:25;99257.13;;;-1.49;100.00
65897;BME280;52677;50.898;10.854;2023-11-22T01:39:25;99252.78;;;-1.50;100.00
65897;BME280;52677;50.898;10.854;2023-11-22T01:41:26;99263.69;;;-1.55;100.00
65897;BME280;52677;50.898;10.854;2023-11-22T01:43:27;99265.88;;;-1.62;100.00
65897;BME280;52677;50.898;10.854;2023-11-22T01:45:27;99276.22;;;-1.64;100.00
65897;BME280;52677;50.898;10.854;2023-11-22T01:47:27;99270.00;;;-1.70;100.00
65897;BME280;52677;50.898;10.854;2023-11-22T01:49:29;99268.91;;;-1.74;100.00
65897;BME280;52677;50.898;10.854;2023-11-22T01:51:30;99258.91;;;-1.79;100.00
65897;BME280;52677;50.898;10.854;2023-11-22T01:53:31;99276.28;;;-1.80;100.00
65897;BME280;52677;50.898;10.854;2023-11-22T01:55:32;99269.75;;;-1.84;100.00
65897;BME280;52677;50.898;10.854;2023-11-22T01:57:33;99263.00;;;-1.86;100.00
65897;BME280;52677;50.898;10.854;2023-11-22T01:59:34;99263.81;;;-1.91;100.00
65897;BME280;52677;50.898;10.854;2023-11-22T02:01:35;99263.28;;;-1.93;100.00
65897;BME280;52677;50.898;10.854;2023-11-22T02:03:35;99262.75;;;-1.95;100.00
65897;BME280;52677;50.898;10.854;2023-11-22T02:05:39;99260.06;;;-2.00;100.00
65897;BME280;52677;50.898;10.854;2023-11-22T02:07:42;99273.09;;;-2.02;100.00
65897;BME280;52677;50.898;10.854;2023-11-22T02:09:42;99282.03;;;-2.02;100.00
65897;BME280;52677;50.898;10.854;2023-11-22T02:11:42;99289.34;;;-1.97;100.00
65897;BME280;52677;50.898;10.854;2023-11-22T02:13:45;99283.94;;;-1.97;100.00
65897;BME280;52677;50.898;10.854;2023-11-22T02:15:46;99277.41;;;-1.96;100.00
65897;BME280;52677;50.898;10.854;2023-11-22T02:17:47;99280.13;;;-1.96;100.00
65897;BME280;52677;50.898;10.854;2023-11-22T02:19:47;99279.56;;;-1.93;100.00
65897;BME280;52677;50.898;10.854;2023-11-22T02:21:48;99275.75;;;-1.92;100.00
65897;BME280;52677;50.898;10.854;2023-11-22T02:23:48;99268.19;;;-1.90;100.00
65897;BME280;52677;50.898;10.854;2023-11-22T02:25:49;99273.31;;;-1.88;100.00
65897;BME280;52677;50.898;10.854;2023-11-22T02:27:49;99271.16;;;-1.91;100.00
65897;BME280;52677;50.898;10.854;2023-11-22T02:29:49;99272.81;;;-1.95;100.00
65897;BME280;52677;50.898;10.854;2023-11-22T02:31:50;99283.13;;;-1.98;100.00
65897;BME280;52677;50.898;10.854;2023-11-22T02:33:50;99296.41;;;-2.01;100.00
65897;BME280;52677;50.898;10.854;2023-11-22T02:35:50;99299.69;;;-2.04;100.00
65897;BME280;52677;50.898;10.854;2023-11-22T02:37:51;99295.34;;;-2.10;100.00
65897;BME280;52677;50.898;10.854;2023-11-22T02:40:00;99292.09;;;-2.12;100.00
65897;BME280;52677;50.898;10.854;2023-11-22T02:42:04;99305.13;;;-2.19;100.00
65897;BME280;52677;50.898;10.854;2023-11-22T02:44:04;99299.47;;;-2.23;100.00
65897;BME280;52677;50.898;10.854;2023-11-22T02:46:08;99296.75;;;-2.28;100.00
65897;BME280;52677;50.898;10.854;2023-11-22T02:48:08;99302.72;;;-2.31;100.00
65897;BME280;52677;50.898;10.854;2023-11-22T02:50:09;99302.97;;;-2.33;100.00
65897;BME280;52677;50.898;10.854;2023-11-22T02:52:09;99311.38;;;-2.34;100.00
65897;BME280;52677;50.898;10.854;2023-11-22T02:54:12;99313.81;;;-2.33;100.00
65897;BME280;52677;50.898;10.854;2023-11-22T02:56:12;99310.56;;;-2.35;100.00
65897;BME280;52677;50.898;10.854;2023-11-22T02:58:12;99311.38;;;-2.34;100.00
65897;BME280;52677;50.898;10.854;2023-11-22T03:00:13;99320.03;;;-2.32;100.00
65897;BME280;52677;50.898;10.854;2023-11-22T03:02:14;99337.13;;;-2.27;100.00
65897;BME280;52677;50.898;10.854;2023-11-22T03:04:17;99328.72;;;-2.25;100.00
65897;BME280;52677;50.898;10.854;2023-11-22T03:06:17;99329.53;;;-2.24;100.00
65897;BME280;52677;50.898;10.854;2023-11-22T03:08:17;99330.63;;;-2.26;100.00
65897;BME280;52677;50.898;10.854;2023-11-22T03:10:18;99325.47;;;-2.27;100.00
65897;BME280;52677;50.898;10.854;2023-11-22T03:12:19;99318.97;;;-2.26;100.00
65897;BME280;52677;50.898;10.854;2023-11-22T03:14:20;99331.44;;;-2.20;100.00
65897;BME280;52677;50.898;10.854;2023-11-22T03:16:22;99328.97;;;-2.16;100.00
65897;BME280;52677;50.898;10.854;2023-11-22T03:18:22;99334.97;;;-2.14;100.00
65897;BME280;52677;50.898;10.854;2023-11-22T03:20:22;99327.34;;;-2.17;100.00
65897;BME280;52677;50.898;10.854;2023-11-22T03:22:26;99339.81;;;-2.16;100.00
65897;BME280;52677;50.898;10.854;2023-11-22T03:24:27;99342.00;;;-2.13;100.00
65897;BME280;52677;50.898;10.854;2023-11-22T03:26:28;99336.84;;;-2.10;100.00
65897;BME280;52677;50.898;10.854;2023-11-22T03:28:28;99337.38;;;-2.08;100.00
65897;BME280;52677;50.898;10.854;2023-11-22T03:30:31;99334.41;;;-2.06;100.00
65897;BME280;52677;50.898;10.854;2023-11-22T03:32:31;99347.97;;;-2.06;100.00
65897;BME280;52677;50.898;10.854;2023-11-22T03:34:32;99346.59;;;-2.04;100.00
65897;BME280;52677;50.898;10.854;2023-11-22T03:36:32;99352.81;;;-2.03;100.00
65897;BME280;52677;50.898;10.854;2023-11-22T03:38:32;99360.69;;;-2.02;100.00
65897;BME280;52677;50.898;10.854;2023-11-22T03:40:33;99360.16;;;-1.99;100.00
65897;BME280;52677;50.898;10.854;2023-11-22T03:42:36;99368.28;;;-1.99;100.00
65897;BME280;52677;50.898;10.854;2023-11-22T03:44:36;99377.22;;;-1.93;100.00
65897;BME280;52677;50.898;10.854;2023-11-22T03:46:39;99367.72;;;-1.95;100.00
65897;BME280;52677;50.898;10.854;2023-11-22T03:48:40;99369.34;;;-1.94;100.00
65897;BME280;52677;50.898;10.854;2023-11-22T03:50:40;99370.16;;;-1.94;100.00
65897;BME280;52677;50.898;10.854;2023-11-22T03:52:40;99375.03;;;-1.91;100.00
65897;BME280;52677;50.898;10.854;2023-11-22T03:54:41;99381.53;;;-1.92;100.00
65897;BME280;52677;50.898;10.854;2023-11-22T03:56:41;99378.28;;;-1.94;100.00
65897;BME280;52677;50.898;10.854;2023-11-22T03:58:41;99383.72;;;-1.94;100.00
65897;BME280;52677;50.898;10.854;2023-11-22T04:00:42;99371.53;;;-1.96;100.00
65897;BME280;52677;50.898;10.854;2023-11-22T04:02:42;99377.22;;;-1.93;100.00
65897;BME280;52677;50.898;10.854;2023-11-22T04:04:43;99383.97;;;-1.90;100.00
65897;BME280;52677;50.898;10.854;2023-11-22T04:06:44;99379.09;;;-1.88;100.00
65897;BME280;52677;50.898;10.854;2023-11-22T04:08:46;99379.91;;;-1.88;100.00
65897;BME280;52677;50.898;10.854;2023-11-22T04:10:46;99385.06;;;-1.81;100.00
65897;BME280;52677;50.898;10.854;2023-11-22T04:12:48;99394.00;;;-1.81;100.00
65897;BME280;52677;50.898;10.854;2023-11-22T04:14:49;99385.06;;;-1.81;100.00
65897;BME280;52677;50.898;10.854;2023-11-22T04:16:51;99391.84;;;-1.74;100.00
65897;BME280;52677;50.898;10.854;2023-11-22T04:18:51;99385.56;;;-1.74;100.00
65897;BME280;52677;50.898;10.854;2023-11-22T04:20:52;99388.03;;;-1.73;100.00
65897;BME280;52677;50.898;10.854;2023-11-22T04:22:52;99384.75;;;-1.75;100.00
65897;BME280;52677;50.898;10.854;2023-11-22T04:24:53;99388.56;;;-1.76;100.00
65897;BME280;52677;50.898;10.854;2023-11-22T04:26:53;99386.41;;;-1.74;100.00
65897;BME280;52677;50.898;10.854;2023-11-22T04:28:54;99398.88;;;-1.73;100.00
65897;BME280;52677;50.898;10.854;2023-11-22T04:30:54;99397.50;;;-1.65;100.00
65897;BME280;52677;50.898;10.854;2023-11-22T04:32:54;99394.28;;;-1.72;100.00
65897;BME280;52677;50.898;10.854;2023-11-22T04:34:55;99389.66;;;-1.72;100.00
65897;BME280;52677;50.898;10.854;2023-11-22T04:36:55;99406.19;;;-1.68;100.00
65897;BME280;52677;50.898;10.854;2023-11-22T04:38:56;99405.38;;;-1.68;100.00
65897;BME280;52677;50.898;10.854;2023-11-22T04:40:56;99412.97;;;-1.71;100.00
65897;BME280;52677;50.898;10.854;2023-11-22T04:42:57;99409.19;;;-1.70;100.00
65897;BME280;52677;50.898;10.854;2023-11-22T04:44:57;99408.66;;;-1.72;100.00
65897;BME280;52677;50.898;10.854;2023-11-22T04:46:58;99414.59;;;-1.75;100.00
65897;BME280;52677;50.898;10.854;2023-11-22T04:49:01;99407.56;;;-1.71;100.00
65897;BME280;52677;50.898;10.854;2023-11-22T04:51:01;99406.75;;;-1.76;100.00
65897;BME280;52677;50.898;10.854;2023-11-22T04:53:02;99421.94;;;-1.70;100.00
65897;BME280;52677;50.898;10.854;2023-11-22T04:55:02;99428.16;;;-1.70;100.00
65897;BME280;52677;50.898;10.854;2023-11-22T04:57:04;99431.44;;;-1.73;100.00
65897;BME280;52677;50.898;10.854;2023-11-22T04:59:05;99428.44;;;-1.71;100.00
65897;BME280;52677;50.898;10.854;2023-11-22T05:01:06;99423.56;;;-1.74;100.00
65897;BME280;52677;50.898;10.854;2023-11-22T05:03:06;99420.03;;;-1.75;100.00
65897;BME280;52677;50.898;10.854;2023-11-22T05:05:08;99422.50;;;-1.78;100.00
65897;BME280;52677;50.898;10.854;2023-11-22T05:07:11;99439.03;;;-1.75;100.00
65897;BME280;52677;50.898;10.854;2023-11-22T05:09:12;99436.34;;;-1.80;100.00
65897;BME280;52677;50.898;10.854;2023-11-22T05:11:13;99427.91;;;-1.78;100.00
65897;BME280;52677;50.898;10.854;2023-11-22T05:13:15;99444.19;;;-1.78;100.00
65897;BME280;52677;50.898;10.854;2023-11-22T05:15:16;99443.66;;;-1.80;100.00
65897;BME280;52677;50.898;10.854;2023-11-22T05:17:16;99450.44;;;-1.78;100.00
65897;BME280;52677;50.898;10.854;2023-11-22T05:19:16;99449.88;;;-1.75;100.00
65897;BME280;52677;50.898;10.854;2023-11-22T05:21:17;99463.72;;;-1.71;100.00
65897;BME280;52677;50.898;10.854;2023-11-22T05:23:17;99461.28;;;-1.73;100.00
65897;BME280;52677;50.898;10.854;2023-11-22T05:25:18;99462.88;;;-1.66;100.00
65897;BME280;52677;50.898;10.854;2023-11-22T05:27:18;99459.34;;;-1.67;100.00
65897;BME280;52677;50.898;10.854;2023-11-22T05:29:19;99464.78;;;-1.62;100.00
65897;BME280;52677;50.898;10.854;2023-11-22T05:31:20;99471.31;;;-1.63;100.00
65897;BME280;52677;50.898;10.854;2023-11-22T05:33:21;99478.34;;;-1.67;100.00
65897;BME280;52677;50.898;10.854;2023-11-22T05:35:21;99483.78;;;-1.67;100.00
65897;BME280;52677;50.898;10.854;2023-11-22T05:37:21;99477.56;;;-1.73;100.00
65897;BME280;52677;50.898;10.854;2023-11-22T05:39:22;99486.50;;;-1.62;100.00
65897;BME280;52677;50.898;10.854;2023-11-22T05:41:22;99493.56;;;-1.56;100.00
65897;BME280;52677;50.898;10.854;2023-11-22T05:43:23;99488.94;;;-1.60;100.00
65897;BME280;52677;50.898;10.854;2023-11-22T05:45:26;99495.72;;;-1.53;100.00
65897;BME280;52677;50.898;10.854;2023-11-22T05:47:27;99481.34;;;-1.63;100.00
65897;BME280;52677;50.898;10.854;2023-11-22T05:49:27;99491.66;;;-1.65;100.00
65897;BME280;52677;50.898;10.854;2023-11-22T05:51:28;99494.66;;;-1.72;100.00
65897;BME280;52677;50.898;10.854;2023-11-22T05:53:28;99492.19;;;-1.84;100.00
65897;BME280;52677;50.898;10.854;2023-11-22T05:55:29;99494.66;;;-1.87;100.00
65897;BME280;52677;50.898;10.854;2023-11-22T05:57:30;99491.69;;;-1.96;100.00
65897;BME280;52677;50.898;10.854;2023-11-22T05:59:31;99499.28;;;-1.98;100.00
65897;BME280;52677;50.898;10.854;2023-11-22T06:01:31;99489.50;;;-1.94;100.00
65897;BME280;52677;50.898;10.854;2023-11-22T06:03:32;99498.72;;;-2.00;100.00
65897;BME280;52677;50.898;10.854;2023-11-22T06:05:33;99501.69;;;-2.02;100.00
65897;BME280;52677;50.898;10.854;2023-11-22T06:07:33;99497.09;;;-2.06;100.00
65897;BME280;52677;50.898;10.854;2023-11-22T06:09:34;99500.34;;;-2.14;100.00
65897;BME280;52677;50.898;10.854;2023-11-22T06:11:34;99503.06;;;-2.14;100.00
65897;BME280;52677;50.898;10.854;2023-11-22T06:13:35;99514.44;;;-2.12;100.00
65897;BME280;52677;50.898;10.854;2023-11-22T06:15:35;99517.16;;;-2.22;100.00
65897;BME280;52677;50.898;10.854;2023-11-22T06:17:35;99516.59;;;-2.24;100.00
65897;BME280;52677;50.898;10.854;2023-11-22T06:19:36;99537.19;;;-2.29;100.00
65897;BME280;52677;50.898;10.854;2023-11-22T06:21:36;99522.00;;;-2.35;100.00
65897;BME280;52677;50.898;10.854;2023-11-22T06:23:38;99526.59;;;-2.35;100.00
65897;BME280;52677;50.898;10.854;2023-11-22T06:25:38;99526.88;;;-2.37;100.00
65897;BME280;52677;50.898;10.854;2023-11-22T06:27:41;99535.78;;;-2.41;100.00
65897;BME280;52677;50.898;10.854;2023-11-22T06:29:42;99526.84;;;-2.47;100.00
65897;BME280;52677;50.898;10.854;2023-11-22T06:31:44;99540.91;;;-2.50;100.00
65897;BME280;52677;50.898;10.854;2023-11-22T06:33:44;99535.22;;;-2.53;100.00
65897;BME280;52677;50.898;10.854;2023-11-22T06:35:45;99541.44;;;-2.58;100.00
65897;BME280;52677;50.898;10.854;2023-11-22T06:37:45;99556.38;;;-2.56;100.00
65897;BME280;52677;50.898;10.854;2023-11-22T06:39:46;99557.69;;;-2.63;100.00
65897;BME280;52677;50.898;10.854;2023-11-22T06:41:46;99562.00;;;-2.67;100.00
65897;BME280;52677;50.898;10.854;2023-11-22T06:43:48;99560.38;;;-2.68;100.00
65897;BME280;52677;50.898;10.854;2023-11-22T06:45:48;99563.31;;;-2.75;100.00
65897;BME280;52677;50.898;10.854;2023-11-22T06:47:49;99574.97;;;-2.74;100.00
65897;BME280;52677;50.898;10.854;2023-11-22T06:49:50;99576.91;;;-2.70;100.00
65897;BME280;52677;50.898;10.854;2023-11-22T06:51:50;99571.44;;;-2.75;100.00
65897;BME280;52677;50.898;10.854;2023-11-22T06:53:51;99578.78;;;-2.70;100.00
65897;BME280;52677;50.898;10.854;2023-11-22T06:55:54;99579.06;;;-2.67;100.00
65897;BME280;52677;50.898;10.854;2023-11-22T06:57:55;99573.38;;;-2.70;100.00
65897;BME280;52677;50.898;10.854;2023-11-22T06:59:58;99575.28;;;-2.66;100.00
65897;BME280;52677;50.898;10.854;2023-11-22T07:01:58;99577.44;;;-2.68;100.00
65897;BME280;52677;50.898;10.854;2023-11-22T07:03:58;99582.84;;;-2.68;100.00
65897;BME280;52677;50.898;10.854;2023-11-22T07:05:59;99587.47;;;-2.68;100.00
65897;BME280;52677;50.898;10.854;2023-11-22T07:07:59;99609.69;;;-2.66;100.00
65897;BME280;52677;50.898;10.854;2023-11-22T07:10:00;99602.63;;;-2.67;100.00
65897;BME280;52677;50.898;10.854;2023-11-22T07:12:00;99608.91;;;-2.62;100.00
65897;BME280;52677;50.898;10.854;2023-11-22T07:14:00;99619.47;;;-2.60;100.00
65897;BME280;52677;50.898;10.854;2023-11-22T07:16:01;99624.06;;;-2.61;100.00
65897;BME280;52677;50.898;10.854;2023-11-22T07:18:01;99624.34;;;-2.57;100.00
65897;BME280;52677;50.898;10.854;2023-11-22T07:20:02;99617.03;;;-2.57;100.00
65897;BME280;52677;50.898;10.854;2023-11-22T07:22:03;99623.03;;;-2.49;100.00
65897;BME280;52677;50.898;10.854;2023-11-22T07:24:04;99627.66;;;-2.45;100.00
65897;BME280;52677;50.898;10.854;2023-11-22T07:26:06;99624.69;;;-2.43;100.00
65897;BME280;52677;50.898;10.854;2023-11-22T07:28:07;99618.72;;;-2.40;100.00
65897;BME280;52677;50.898;10.854;2023-11-22T07:30:08;99627.72;;;-2.40;100.00
65897;BME280;52677;50.898;10.854;2023-11-22T07:32:08;99631.50;;;-2.36;100.00
65897;BME280;52677;50.898;10.854;2023-11-22T07:34:09;99633.41;;;-2.36;100.00
65897;BME280;52677;50.898;10.854;2023-11-22T07:36:11;99627.16;;;-2.37;100.00
65897;BME280;52677;50.898;10.854;2023-11-22T07:38:14;99625.53;;;-2.33;100.00
65897;BME280;52677;50.898;10.854;2023-11-22T07:40:17;99623.91;;;-2.34;100.00
65897;BME280;52677;50.898;10.854;2023-11-22T07:42:19;99628.00;;;-2.31;100.00
65897;BME280;52677;50.898;10.854;2023-11-22T07:44:19;99619.88;;;-2.31;100.00
65897;BME280;52677;50.898;10.854;2023-11-22T07:46:20;99624.22;;;-2.30;100.00
65897;BME280;52677;50.898;10.854;2023-11-22T07:48:20;99626.34;;;-2.32;100.00
65897;BME280;52677;50.898;10.854;2023-11-22T07:50:21;99625.53;;;-2.33;100.00
65897;BME280;52677;50.898;10.854;2023-11-22T07:52:22;99629.63;;;-2.30;100.00
65897;BME280;52677;50.898;10.854;2023-11-22T07:54:27;99628.25;;;-2.33;100.00
65897;BME280;52677;50.898;10.854;2023-11-22T07:56:27;99627.19;;;-2.32;100.00
65897;BME280;52677;50.898;10.854;2023-11-22T07:58:28;99625.28;;;-2.31;100.00
65897;BME280;52677;50.898;10.854;2023-11-22T08:00:28;99631.53;;;-2.26;100.00
65897;BME280;52677;50.898;10.854;2023-11-22T08:02:29;99626.09;;;-2.26;100.00
65897;BME280;52677;50.898;10.854;2023-11-22T08:04:31;99622.34;;;-2.19;100.00
65897;BME280;52677;50.898;10.854;2023-11-22T08:06:32;99627.53;;;-2.13;100.00
65897;BME280;52677;50.898;10.854;2023-11-22T08:08:32;99623.72;;;-2.12;100.00
65897;BME280;52677;50.898;10.854;2023-11-22T08:10:38;99615.84;;;-2.08;100.00
65897;BME280;52677;50.898;10.854;2023-11-22T08:12:38;99617.47;;;-2.07;100.00
65897;BME280;52677;50.898;10.854;2023-11-22T08:14:39;99608.56;;;-2.03;100.00
65897;BME280;52677;50.898;10.854;2023-11-22T08:16:40;99614.78;;;-2.02;100.00
65897;BME280;52677;50.898;10.854;2023-11-22T08:18:42;99618.63;;;-1.98;100.00
65897;BME280;52677;50.898;10.854;2023-11-22T08:20:43;99622.41;;;-1.94;100.00
65897;BME280;52677;50.898;10.854;2023-11-22T08:22:45;99625.38;;;-2.01;100.00
65897;BME280;52677;50.898;10.854;2023-11-22T08:24:45;99614.00;;;-1.98;100.00
65897;BME280;52677;50.898;10.854;2023-11-22T08:26:46;99608.00;;;-2.00;100.00
65897;BME280;52677;50.898;10.854;2023-11-22T08:28:46;99601.78;;;-2.00;100.00
65897;BME280;52677;50.898;10.854;2023-11-22T08:30:47;99594.47;;;-2.05;100.00
65897;BME280;52677;50.898;10.854;2023-11-22T08:32:47;99593.06;;;-2.07;100.00
65897;BME280;52677;50.898;10.854;2023-11-22T08:34:57;99596.88;;;-2.08;100.00
65897;BME280;52677;50.898;10.854;2023-11-22T08:36:58;99574.38;;;-2.09;100.00
65897;BME280;52677;50.898;10.854;2023-11-22T08:39:00;99589.28;;;-2.11;100.00
65897;BME280;52677;50.898;10.854;2023-11-22T08:41:04;99589.81;;;-2.09;100.00
65897;BME280;52677;50.898;10.854;2023-11-22T08:43:11;99592.25;;;-2.08;100.00
65897;BME280;52677;50.898;10.854;2023-11-22T08:45:12;99582.25;;;-2.02;100.00
65897;BME280;52677;50.898;10.854;2023-11-22T08:47:12;99580.06;;;-2.00;100.00
65897;BME280;52677;50.898;10.854;2023-11-22T08:49:13;99586.59;;;-1.96;100.00
65897;BME280;52677;50.898;10.854;2023-11-22T08:51:15;99586.06;;;-1.98;100.00
65897;BME280;52677;50.898;10.854;2023-11-22T08:53:15;99595.03;;;-1.98;100.00
65897;BME280;52677;50.898;10.854;2023-11-22T08:55:18;99598.28;;;-1.95;100.00
65897;BME280;52677;50.898;10.854;2023-11-22T08:57:22;99596.09;;;-1.93;100.00
65897;BME280;52677;50.898;10.854;2023-11-22T08:59:22;99603.97;;;-1.92;100.00
65897;BME280;52677;50.898;10.854;2023-11-22T09:01:22;99598.53;;;-1.92;100.00
65897;BME280;52677;50.898;10.854;2023-11-22T09:03:24;99603.16;;;-1.92;100.00
65897;BME280;52677;50.898;10.854;2023-11-22T09:05:24;99607.22;;;-1.85;100.00
65897;BME280;52677;50.898;10.854;2023-11-22T09:07:25;99618.91;;;-1.79;100.00
65897;BME280;52677;50.898;10.854;2023-11-22T09:09:26;99616.19;;;-1.74;100.00
65897;BME280;52677;50.898;10.854;2023-11-22T09:11:31;99617.03;;;-1.68;100.00
65897;BME280;52677;50.898;10.854;2023-11-22T09:13:33;99633.84;;;-1.61;100.00
65897;BME280;52677;50.898;10.854;2023-11-22T09:15:35;99615.66;;;-1.61;100.00
65897;BME280;52677;50.898;10.854;2023-11-22T09:17:37;99621.63;;;-1.59;100.00
65897;BME280;52677;50.898;10.854;2023-11-22T09:19:38;99635.75;;;-1.52;100.00
65897;BME280;52677;50.898;10.854;2023-11-22T09:21:39;99634.97;;;-1.47;100.00
65897;BME280;52677;50.898;10.854;2023-11-22T09:23:39;99635.22;;;-1.44;100.00
65897;BME280;52677;50.898;10.854;2023-11-22T09:25:39;99637.94;;;-1.38;100.00
65897;BME280;52677;50.898;10.854;2023-11-22T09:27:40;99628.44;;;-1.36;100.00
65897;BME280;52677;50.898;10.854;2023-11-22T09:29:40;99623.84;;;-1.30;100.00
65897;BME280;52677;50.898;10.854;2023-11-22T09:31:41;99650.72;;;-1.24;100.00
65897;BME280;52677;50.898;10.854;2023-11-22T09:33:46;99647.44;;;-1.21;100.00
65897;BME280;52677;50.898;10.854;2023-11-22T09:35:49;99639.84;;;-1.14;100.00
65897;BME280;52677;50.898;10.854;2023-11-22T09:37:51;99640.63;;;-1.03;100.00
65897;BME280;52677;50.898;10.854;2023-11-22T09:39:51;99642.00;;;-0.90;100.00
65897;BME280;52677;50.898;10.854;2023-11-22T09:41:52;99640.34;;;-0.81;100.00
65897;BME280;52677;50.898;10.854;2023-11-22T09:43:53;99657.44;;;-0.75;100.00
65897;BME280;52677;50.898;10.854;2023-11-22T09:45:54;99653.38;;;-0.73;100.00
65897;BME280;52677;50.898;10.854;2023-11-22T09:47:55;99646.03;;;-0.77;100.00
65897;BME280;52677;50.898;10.854;2023-11-22T09:49:56;99653.38;;;-0.78;100.00
65897;BME280;52677;50.898;10.854;2023-11-22T09:52:01;99643.88;;;-0.86;100.00
65897;BME280;52677;50.898;10.854;2023-11-22T09:54:06;99636.00;;;-0.82;100.00
65897;BME280;52677;50.898;10.854;2023-11-22T09:56:09;99639.53;;;-0.92;100.00
65897;BME280;52677;50.898;10.854;2023-11-22T09:58:11;99635.75;;;-0.91;100.00
65897;BME280;52677;50.898;10.854;2023-11-22T10:00:12;99639.81;;;-0.93;100.00
65897;BME280;52677;50.898;10.854;2023-11-22T10:02:14;99637.09;;;-0.93;100.00
65897;BME280;52677;50.898;10.854;2023-11-22T10:04:15;99635.47;;;-0.94;100.00
65897;BME280;52677;50.898;10.854;2023-11-22T10:06:16;99626.22;;;-0.93;100.00
65897;BME280;52677;50.898;10.854;2023-11-22T10:08:17;99625.94;;;-0.92;100.00
65897;BME280;52677;50.898;10.854;2023-11-22T10:10:19;99623.50;;;-0.93;100.00
65897;BME280;52677;50.898;10.854;2023-11-22T10:12:24;99637.09;;;-0.88;100.00
65897;BME280;52677;50.898;10.854;2023-11-22T10:14:25;99638.44;;;-0.86;100.00
65897;BME280;52677;50.898;10.854;2023-11-22T10:16:26;99638.16;;;-0.84;100.00
65897;BME280;52677;50.898;10.854;2023-11-22T10:18:28;99631.09;;;-0.80;100.00
65897;BME280;52677;50.898;10.854;2023-11-22T10:20:36;99631.06;;;-0.75;100.00
65897;BME280;52677;50.898;10.854;2023-11-22T10:22:44;99633.25;;;-0.77;100.00
65897;BME280;52677;50.898;10.854;2023-11-22T10:24:45;99630.53;;;-0.77;100.00